sensor_id;sensor_type;location;lat;lon;timestamp;temperature;humidity
54082;DHT22;39986;50.770;0.266;2022-07-05T00:02:23;16.90;99.90
54082;DHT22;39986;50.770;0.266;2022-07-05T00:04:49;16.90;99.90
54082;DHT22;39986;50.770;0.266;2022-07-05T00:07:16;16.90;99.90
54082;DHT22;39986;50.770;0.266;2022-07-05T00:09:52;16.80;99.90
54082;DHT22;39986;50.770;0.266;2022-07-05T00:12:18;16.80;99.90
54082;DHT22;39986;50.770;0.266;2022-07-05T00:14:45;16.70;99.90
54082;DHT22;39986;50.770;0.266;2022-07-05T00:17:11;16.70;99.90
54082;DHT22;39986;50.770;0.266;2022-07-05T00:19:37;16.70;99.90
54082;DHT22;39986;50.770;0.266;2022-07-05T00:22:02;16.70;99.90
54082;DHT22;39986;50.770;0.266;2022-07-05T00:24:28;16.70;99.90
54082;DHT22;39986;50.770;0.266;2022-07-05T00:26:53;16.60;99.90
54082;DHT22;39986;50.770;0.266;2022-07-05T00:29:19;16.60;99.90
54082;DHT22;39986;50.770;0.266;2022-07-05T00:31:44;16.60;99.90
54082;DHT22;39986;50.770;0.266;2022-07-05T00:34:10;16.50;99.90
54082;DHT22;39986;50.770;0.266;2022-07-05T00:36:35;16.50;99.90
54082;DHT22;39986;50.770;0.266;2022-07-05T00:39:02;16.40;99.90
54082;DHT22;39986;50.770;0.266;2022-07-05T00:41:28;16.40;99.90
54082;DHT22;39986;50.770;0.266;2022-07-05T00:43:54;16.40;99.90
54082;DHT22;39986;50.770;0.266;2022-07-05T00:46:20;16.40;99.90
54082;DHT22;39986;50.770;0.266;2022-07-05T00:48:45;16.40;99.90
54082;DHT22;39986;50.770;0.266;2022-07-05T00:51:11;16.40;99.90
54082;DHT22;39986;50.770;0.266;2022-07-05T00:53:36;16.40;99.90
54082;DHT22;39986;50.770;0.266;2022-07-05T00:56:02;16.30;99.90
54082;DHT22;39986;50.770;0.266;2022-07-05T00:58:28;16.30;99.90
54082;DHT22;39986;50.770;0.266;2022-07-05T01:00:54;16.30;99.90
54082;DHT22;39986;50.770;0.266;2022-07-05T01:03:20;16.30;99.90
54082;DHT22;39986;50.770;0.266;2022-07-05T01:05:45;16.30;99.90
54082;DHT22;39986;50.770;0.266;2022-07-05T01:08:11;16.20;99.90
54082;DHT22;39986;50.770;0.266;2022-07-05T01:10:38;16.20;99.90
54082;DHT22;39986;50.770;0.266;2022-07-05T01:13:03;16.20;99.90
54082;DHT22;39986;50.770;0.266;2022-07-05T01:15:29;16.10;99.90
54082;DHT22;39986;50.770;0.266;2022-07-05T01:17:58;16.00;99.90
54082;DHT22;39986;50.770;0.266;2022-07-05T01:20:24;16.00;99.90
54082;DHT22;39986;50.770;0.266;2022-07-05T01:22:50;16.00;99.90
54082;DHT22;39986;50.770;0.266;2022-07-05T01:25:19;16.10;99.90
54082;DHT22;39986;50.770;0.266;2022-07-05T01:27:45;16.10;99.90
54082;DHT22;39986;50.770;0.266;2022-07-05T01:30:11;16.10;99.90
54082;DHT22;39986;50.770;0.266;2022-07-05T01:32:37;16.20;99.90
54082;DHT22;39986;50.770;0.266;2022-07-05T01:35:03;16.30;99.90
54082;DHT22;39986;50.770;0.266;2022-07-05T01:37:29;16.40;99.90
54082;DHT22;39986;50.770;0.266;2022-07-05T01:39:54;16.50;99.90
54082;DHT22;39986;50.770;0.266;2022-07-05T01:42:20;16.50;99.90
54082;DHT22;39986;50.770;0.266;2022-07-05T01:44:46;16.50;99.90
54082;DHT22;39986;50.770;0.266;2022-07-05T01:47:12;16.50;99.90
54082;DHT22;39986;50.770;0.266;2022-07-05T01:49:39;16.50;99.90
54082;DHT22;39986;50.770;0.266;2022-07-05T01:52:07;16.50;99.90
54082;DHT22;39986;50.770;0.266;2022-07-05T01:54:33;16.50;99.90
54082;DHT22;39986;50.770;0.266;2022-07-05T01:56:59;16.50;99.90
54082;DHT22;39986;50.770;0.266;2022-07-05T01:59:25;16.50;99.90
54082;DHT22;39986;50.770;0.266;2022-07-05T02:01:51;16.50;99.90
54082;DHT22;39986;50.770;0.266;2022-07-05T02:04:17;16.60;99.90
54082;DHT22;39986;50.770;0.266;2022-07-05T02:06:43;16.50;99.90
54082;DHT22;39986;50.770;0.266;2022-07-05T02:09:10;16.50;99.90
54082;DHT22;39986;50.770;0.266;2022-07-05T02:11:36;16.50;99.90
54082;DHT22;39986;50.770;0.266;2022-07-05T02:14:02;16.40;99.90
54082;DHT22;39986;50.770;0.266;2022-07-05T02:16:28;16.30;99.90
54082;DHT22;39986;50.770;0.266;2022-07-05T02:18:54;16.30;99.90
54082;DHT22;39986;50.770;0.266;2022-07-05T02:21:19;16.40;99.90
54082;DHT22;39986;50.770;0.266;2022-07-05T02:23:46;16.30;99.90
54082;DHT22;39986;50.770;0.266;2022-07-05T02:26:12;16.30;99.90
54082;DHT22;39986;50.770;0.266;2022-07-05T02:28:37;16.30;99.90
54082;DHT22;39986;50.770;0.266;2022-07-05T02:31:03;16.20;99.90
54082;DHT22;39986;50.770;0.266;2022-07-05T02:33:28;16.20;99.90
54082;DHT22;39986;50.770;0.266;2022-07-05T02:35:54;16.10;99.90
54082;DHT22;39986;50.770;0.266;2022-07-05T02:38:20;16.20;99.90
54082;DHT22;39986;50.770;0.266;2022-07-05T02:40:45;16.20;99.90
54082;DHT22;39986;50.770;0.266;2022-07-05T02:43:11;16.10;99.90
54082;DHT22;39986;50.770;0.266;2022-07-05T02:45:36;16.10;99.90
54082;DHT22;39986;50.770;0.266;2022-07-05T02:48:02;16.10;99.90
54082;DHT22;39986;50.770;0.266;2022-07-05T02:50:27;16.10;99.90
54082;DHT22;39986;50.770;0.266;2022-07-05T02:52:53;16.10;99.90
54082;DHT22;39986;50.770;0.266;2022-07-05T02:55:19;16.00;99.90
54082;DHT22;39986;50.770;0.266;2022-07-05T02:57:44;15.90;99.90
54082;DHT22;39986;50.770;0.266;2022-07-05T03:00:10;15.90;99.90
54082;DHT22;39986;50.770;0.266;2022-07-05T03:02:36;15.90;99.90
54082;DHT22;39986;50.770;0.266;2022-07-05T03:05:01;16.00;99.90
54082;DHT22;39986;50.770;0.266;2022-07-05T03:07:28;16.00;99.90
54082;DHT22;39986;50.770;0.266;2022-07-05T03:09:53;16.00;99.90
54082;DHT22;39986;50.770;0.266;2022-07-05T03:12:19;16.00;99.90
54082;DHT22;39986;50.770;0.266;2022-07-05T03:14:48;16.00;99.90
54082;DHT22;39986;50.770;0.266;2022-07-05T03:17:16;16.00;99.90
54082;DHT22;39986;50.770;0.266;2022-07-05T03:19:41;15.90;99.90
54082;DHT22;39986;50.770;0.266;2022-07-05T03:22:07;15.80;99.90
54082;DHT22;39986;50.770;0.266;2022-07-05T03:24:32;15.80;99.90
54082;DHT22;39986;50.770;0.266;2022-07-05T03:26:58;15.80;99.90
54082;DHT22;39986;50.770;0.266;2022-07-05T03:29:23;15.70;99.90
54082;DHT22;39986;50.770;0.266;2022-07-05T03:31:49;15.70;99.90
54082;DHT22;39986;50.770;0.266;2022-07-05T03:34:14;15.60;99.90
54082;DHT22;39986;50.770;0.266;2022-07-05T03:36:40;15.70;99.90
54082;DHT22;39986;50.770;0.266;2022-07-05T03:39:07;15.60;99.90
54082;DHT22;39986;50.770;0.266;2022-07-05T03:41:33;15.60;99.90
54082;DHT22;39986;50.770;0.266;2022-07-05T03:43:58;15.60;99.90
54082;DHT22;39986;50.770;0.266;2022-07-05T03:46:24;15.60;99.90
54082;DHT22;39986;50.770;0.266;2022-07-05T03:48:49;15.60;99.90
54082;DHT22;39986;50.770;0.266;2022-07-05T03:51:15;15.50;99.90
54082;DHT22;39986;50.770;0.266;2022-07-05T03:53:41;15.50;99.90
54082;DHT22;39986;50.770;0.266;2022-07-05T03:56:06;15.60;99.90
54082;DHT22;39986;50.770;0.266;2022-07-05T03:58:32;15.60;99.90
54082;DHT22;39986;50.770;0.266;2022-07-05T04:00:57;15.60;99.90
54082;DHT22;39986;50.770;0.266;2022-07-05T04:03:23;15.70;99.90
54082;DHT22;39986;50.770;0.266;2022-07-05T04:05:49;15.60;99.90
54082;DHT22;39986;50.770;0.266;2022-07-05T04:08:14;15.60;99.90
54082;DHT22;39986;50.770;0.266;2022-07-05T04:10:40;15.50;99.90
54082;DHT22;39986;50.770;0.266;2022-07-05T04:13:05;15.50;99.90
54082;DHT22;39986;50.770;0.266;2022-07-05T04:15:31;15.50;99.90
54082;DHT22;39986;50.770;0.266;2022-07-05T04:17:58;15.40;99.90
54082;DHT22;39986;50.770;0.266;2022-07-05T04:20:24;15.50;99.90
54082;DHT22;39986;50.770;0.266;2022-07-05T04:22:50;15.50;99.90
54082;DHT22;39986;50.770;0.266;2022-07-05T04:25:16;15.50;99.90
54082;DHT22;39986;50.770;0.266;2022-07-05T04:27:46;15.50;99.90
54082;DHT22;39986;50.770;0.266;2022-07-05T04:30:12;15.50;99.90
54082;DHT22;39986;50.770;0.266;2022-07-05T04:32:37;15.60;99.90
54082;DHT22;39986;50.770;0.266;2022-07-05T04:35:03;15.60;99.90
54082;DHT22;39986;50.770;0.266;2022-07-05T04:37:29;15.70;99.90
54082;DHT22;39986;50.770;0.266;2022-07-05T04:39:54;15.80;99.90
54082;DHT22;39986;50.770;0.266;2022-07-05T04:42:20;15.80;99.90
54082;DHT22;39986;50.770;0.266;2022-07-05T04:44:45;15.90;99.90
54082;DHT22;39986;50.770;0.266;2022-07-05T04:47:11;16.00;99.90
54082;DHT22;39986;50.770;0.266;2022-07-05T04:49:36;16.10;99.90
54082;DHT22;39986;50.770;0.266;2022-07-05T04:52:02;16.10;99.90
54082;DHT22;39986;50.770;0.266;2022-07-05T04:54:27;16.10;99.90
54082;DHT22;39986;50.770;0.266;2022-07-05T04:56:53;16.20;99.90
54082;DHT22;39986;50.770;0.266;2022-07-05T04:59:18;16.20;99.90
54082;DHT22;39986;50.770;0.266;2022-07-05T05:01:44;16.30;99.90
54082;DHT22;39986;50.770;0.266;2022-07-05T05:04:09;16.30;99.90
54082;DHT22;39986;50.770;0.266;2022-07-05T05:06:35;16.40;99.90
54082;DHT22;39986;50.770;0.266;2022-07-05T05:09:00;16.40;99.90
54082;DHT22;39986;50.770;0.266;2022-07-05T05:11:26;16.40;99.90
54082;DHT22;39986;50.770;0.266;2022-07-05T05:13:52;16.40;99.90
54082;DHT22;39986;50.770;0.266;2022-07-05T05:16:17;16.40;99.90
54082;DHT22;39986;50.770;0.266;2022-07-05T05:18:43;16.50;99.90
54082;DHT22;39986;50.770;0.266;2022-07-05T05:21:08;16.50;99.90
54082;DHT22;39986;50.770;0.266;2022-07-05T05:23:34;16.60;99.90
54082;DHT22;39986;50.770;0.266;2022-07-05T05:25:59;16.70;99.90
54082;DHT22;39986;50.770;0.266;2022-07-05T05:28:25;16.80;99.90
54082;DHT22;39986;50.770;0.266;2022-07-05T05:30:50;16.90;99.90
54082;DHT22;39986;50.770;0.266;2022-07-05T05:33:16;17.00;99.90
54082;DHT22;39986;50.770;0.266;2022-07-05T05:35:42;17.10;99.90
54082;DHT22;39986;50.770;0.266;2022-07-05T05:38:07;17.10;99.90
54082;DHT22;39986;50.770;0.266;2022-07-05T05:40:33;17.10;99.90
54082;DHT22;39986;50.770;0.266;2022-07-05T05:42:59;17.10;99.90
54082;DHT22;39986;50.770;0.266;2022-07-05T05:45:25;17.10;99.90
54082;DHT22;39986;50.770;0.266;2022-07-05T05:47:51;17.20;99.90
54082;DHT22;39986;50.770;0.266;2022-07-05T05:50:18;17.30;99.90
54082;DHT22;39986;50.770;0.266;2022-07-05T05:52:43;17.30;99.90
54082;DHT22;39986;50.770;0.266;2022-07-05T05:55:09;17.40;99.90
54082;DHT22;39986;50.770;0.266;2022-07-05T05:57:34;17.60;99.90
54082;DHT22;39986;50.770;0.266;2022-07-05T06:00:02;17.80;99.90
54082;DHT22;39986;50.770;0.266;2022-07-05T06:02:28;18.00;99.90
54082;DHT22;39986;50.770;0.266;2022-07-05T06:04:54;18.20;99.90
54082;DHT22;39986;50.770;0.266;2022-07-05T06:07:19;18.30;99.90
54082;DHT22;39986;50.770;0.266;2022-07-05T06:09:45;18.20;99.90
54082;DHT22;39986;50.770;0.266;2022-07-05T06:12:10;18.20;99.90
54082;DHT22;39986;50.770;0.266;2022-07-05T06:14:36;18.20;99.90
54082;DHT22;39986;50.770;0.266;2022-07-05T06:17:01;18.20;99.90
54082;DHT22;39986;50.770;0.266;2022-07-05T06:19:29;18.30;99.90
54082;DHT22;39986;50.770;0.266;2022-07-05T06:21:54;18.30;99.90
54082;DHT22;39986;50.770;0.266;2022-07-05T06:24:20;18.40;99.90
54082;DHT22;39986;50.770;0.266;2022-07-05T06:26:46;18.40;99.90
54082;DHT22;39986;50.770;0.266;2022-07-05T06:29:11;18.50;99.90
54082;DHT22;39986;50.770;0.266;2022-07-05T06:31:37;18.50;99.90
54082;DHT22;39986;50.770;0.266;2022-07-05T06:34:02;18.60;99.90
54082;DHT22;39986;50.770;0.266;2022-07-05T06:36:28;18.60;99.90
54082;DHT22;39986;50.770;0.266;2022-07-05T06:38:54;18.70;99.90
54082;DHT22;39986;50.770;0.266;2022-07-05T06:41:19;18.70;99.90
54082;DHT22;39986;50.770;0.266;2022-07-05T06:43:45;18.70;99.90
54082;DHT22;39986;50.770;0.266;2022-07-05T06:46:11;18.70;99.90
54082;DHT22;39986;50.770;0.266;2022-07-05T06:48:36;18.80;99.90
54082;DHT22;39986;50.770;0.266;2022-07-05T06:51:02;18.80;99.90
54082;DHT22;39986;50.770;0.266;2022-07-05T06:53:28;18.80;99.90
54082;DHT22;39986;50.770;0.266;2022-07-05T06:55:53;19.00;99.90
54082;DHT22;39986;50.770;0.266;2022-07-05T06:58:19;19.00;99.90
54082;DHT22;39986;50.770;0.266;2022-07-05T07:00:44;19.00;99.90
54082;DHT22;39986;50.770;0.266;2022-07-05T07:03:10;19.10;99.90
54082;DHT22;39986;50.770;0.266;2022-07-05T07:05:35;19.10;99.90
54082;DHT22;39986;50.770;0.266;2022-07-05T07:08:02;19.10;99.90
54082;DHT22;39986;50.770;0.266;2022-07-05T07:10:46;19.10;99.90
54082;DHT22;39986;50.770;0.266;2022-07-05T07:13:12;19.20;99.90
54082;DHT22;39986;50.770;0.266;2022-07-05T07:15:37;19.10;99.90
54082;DHT22;39986;50.770;0.266;2022-07-05T07:18:03;19.30;99.90
54082;DHT22;39986;50.770;0.266;2022-07-05T07:20:29;19.40;99.90
54082;DHT22;39986;50.770;0.266;2022-07-05T07:22:54;19.40;99.90
54082;DHT22;39986;50.770;0.266;2022-07-05T07:25:20;19.30;99.90
54082;DHT22;39986;50.770;0.266;2022-07-05T07:27:50;19.30;99.90
54082;DHT22;39986;50.770;0.266;2022-07-05T07:30:16;19.30;99.90
54082;DHT22;39986;50.770;0.266;2022-07-05T07:32:42;19.50;99.90
54082;DHT22;39986;50.770;0.266;2022-07-05T07:35:08;19.60;99.90
54082;DHT22;39986;50.770;0.266;2022-07-05T07:37:34;19.80;99.90
54082;DHT22;39986;50.770;0.266;2022-07-05T07:40:00;19.90;99.90
54082;DHT22;39986;50.770;0.266;2022-07-05T07:42:26;19.90;99.90
54082;DHT22;39986;50.770;0.266;2022-07-05T07:44:53;20.00;99.90
54082;DHT22;39986;50.770;0.266;2022-07-05T07:47:18;20.10;99.90
54082;DHT22;39986;50.770;0.266;2022-07-05T07:49:44;20.00;99.90
54082;DHT22;39986;50.770;0.266;2022-07-05T07:52:10;20.10;99.90
54082;DHT22;39986;50.770;0.266;2022-07-05T07:54:35;20.20;99.90
54082;DHT22;39986;50.770;0.266;2022-07-05T07:57:01;20.30;99.90
54082;DHT22;39986;50.770;0.266;2022-07-05T07:59:29;20.40;99.90
54082;DHT22;39986;50.770;0.266;2022-07-05T08:01:55;20.50;99.90
54082;DHT22;39986;50.770;0.266;2022-07-05T08:04:20;20.50;99.90
54082;DHT22;39986;50.770;0.266;2022-07-05T08:06:46;20.70;99.90
54082;DHT22;39986;50.770;0.266;2022-07-05T08:09:11;20.70;99.90
54082;DHT22;39986;50.770;0.266;2022-07-05T08:11:38;20.80;99.90
54082;DHT22;39986;50.770;0.266;2022-07-05T08:14:03;20.90;99.90
54082;DHT22;39986;50.770;0.266;2022-07-05T08:16:29;20.90;99.90
54082;DHT22;39986;50.770;0.266;2022-07-05T08:18:54;21.00;99.90
54082;DHT22;39986;50.770;0.266;2022-07-05T08:21:38;21.00;99.90
54082;DHT22;39986;50.770;0.266;2022-07-05T08:24:05;21.20;99.90
54082;DHT22;39986;50.770;0.266;2022-07-05T08:26:31;21.40;99.90
54082;DHT22;39986;50.770;0.266;2022-07-05T08:28:57;21.60;99.90
54082;DHT22;39986;50.770;0.266;2022-07-05T08:31:30;21.80;99.90
54082;DHT22;39986;50.770;0.266;2022-07-05T08:33:56;22.00;99.90
54082;DHT22;39986;50.770;0.266;2022-07-05T08:36:21;22.20;99.90
54082;DHT22;39986;50.770;0.266;2022-07-05T08:38:47;22.40;99.90
54082;DHT22;39986;50.770;0.266;2022-07-05T08:41:12;22.60;99.90
54082;DHT22;39986;50.770;0.266;2022-07-05T08:43:42;22.80;99.90
54082;DHT22;39986;50.770;0.266;2022-07-05T08:46:09;22.90;99.90
54082;DHT22;39986;50.770;0.266;2022-07-05T08:48:36;23.00;99.90
54082;DHT22;39986;50.770;0.266;2022-07-05T08:53:39;23.30;99.90
54082;DHT22;39986;50.770;0.266;2022-07-05T08:56:06;23.20;99.90
54082;DHT22;39986;50.770;0.266;2022-07-05T08:58:32;23.00;99.90
54082;DHT22;39986;50.770;0.266;2022-07-05T09:00:57;22.80;99.90
54082;DHT22;39986;50.770;0.266;2022-07-05T09:03:24;22.40;99.90
54082;DHT22;39986;50.770;0.266;2022-07-05T09:05:51;22.30;99.90
54082;DHT22;39986;50.770;0.266;2022-07-05T09:08:19;22.30;99.90
54082;DHT22;39986;50.770;0.266;2022-07-05T09:10:46;22.20;99.90
54082;DHT22;39986;50.770;0.266;2022-07-05T09:13:12;22.20;99.90
54082;DHT22;39986;50.770;0.266;2022-07-05T09:15:38;22.50;99.90
54082;DHT22;39986;50.770;0.266;2022-07-05T09:18:04;22.80;99.90
54082;DHT22;39986;50.770;0.266;2022-07-05T09:20:30;23.10;99.90
54082;DHT22;39986;50.770;0.266;2022-07-05T09:22:55;23.40;99.90
54082;DHT22;39986;50.770;0.266;2022-07-05T09:27:51;24.10;99.90
54082;DHT22;39986;50.770;0.266;2022-07-05T09:30:25;24.60;99.30
54082;DHT22;39986;50.770;0.266;2022-07-05T09:33:01;24.90;99.90
54082;DHT22;39986;50.770;0.266;2022-07-05T09:35:27;25.30;98.80
54082;DHT22;39986;50.770;0.266;2022-07-05T09:37:53;25.40;98.70
54082;DHT22;39986;50.770;0.266;2022-07-05T09:40:19;25.30;99.80
54082;DHT22;39986;50.770;0.266;2022-07-05T09:42:45;25.30;99.20
54082;DHT22;39986;50.770;0.266;2022-07-05T09:45:10;24.90;99.20
54082;DHT22;39986;50.770;0.266;2022-07-05T09:47:36;24.30;99.90
54082;DHT22;39986;50.770;0.266;2022-07-05T09:50:01;23.90;99.90
54082;DHT22;39986;50.770;0.266;2022-07-05T09:52:32;23.40;99.90
54082;DHT22;39986;50.770;0.266;2022-07-05T09:55:12;23.00;99.90
54082;DHT22;39986;50.770;0.266;2022-07-05T09:57:39;23.00;99.90
54082;DHT22;39986;50.770;0.266;2022-07-05T10:02:34;23.60;99.90
54082;DHT22;39986;50.770;0.266;2022-07-05T10:07:35;23.60;99.30
54082;DHT22;39986;50.770;0.266;2022-07-05T10:10:02;23.40;99.20
54082;DHT22;39986;50.770;0.266;2022-07-05T10:12:28;23.20;99.90
54082;DHT22;39986;50.770;0.266;2022-07-05T10:15:00;23.20;99.90
54082;DHT22;39986;50.770;0.266;2022-07-05T10:17:28;23.10;99.90
54082;DHT22;39986;50.770;0.266;2022-07-05T10:19:54;23.00;99.90
54082;DHT22;39986;50.770;0.266;2022-07-05T10:22:20;23.00;99.90
54082;DHT22;39986;50.770;0.266;2022-07-05T10:24:45;23.10;99.90
54082;DHT22;39986;50.770;0.266;2022-07-05T10:27:11;23.10;99.90
54082;DHT22;39986;50.770;0.266;2022-07-05T10:29:37;23.00;99.90
54082;DHT22;39986;50.770;0.266;2022-07-05T10:32:04;23.00;99.90
54082;DHT22;39986;50.770;0.266;2022-07-05T10:34:32;23.20;99.90
54082;DHT22;39986;50.770;0.266;2022-07-05T10:36:58;23.30;99.90
54082;DHT22;39986;50.770;0.266;2022-07-05T10:39:23;23.10;99.90
54082;DHT22;39986;50.770;0.266;2022-07-05T10:41:51;22.90;99.90
54082;DHT22;39986;50.770;0.266;2022-07-05T10:44:30;22.90;99.90
54082;DHT22;39986;50.770;0.266;2022-07-05T10:47:29;22.90;99.90
54082;DHT22;39986;50.770;0.266;2022-07-05T10:53:02;23.50;99.90
54082;DHT22;39986;50.770;0.266;2022-07-05T10:55:28;23.60;99.90
54082;DHT22;39986;50.770;0.266;2022-07-05T10:58:17;23.50;99.90
54082;DHT22;39986;50.770;0.266;2022-07-05T11:00:41;23.50;99.90
54082;DHT22;39986;50.770;0.266;2022-07-05T11:03:31;23.70;99.60
54082;DHT22;39986;50.770;0.266;2022-07-05T11:05:53;23.70;99.60
54082;DHT22;39986;50.770;0.266;2022-07-05T11:08:19;23.70;99.90
54082;DHT22;39986;50.770;0.266;2022-07-05T11:13:36;26.00;96.70
54082;DHT22;39986;50.770;0.266;2022-07-05T11:16:19;28.10;93.90
54082;DHT22;39986;50.770;0.266;2022-07-05T11:18:49;29.70;92.10
54082;DHT22;39986;50.770;0.266;2022-07-05T11:21:15;30.80;89.80
54082;DHT22;39986;50.770;0.266;2022-07-05T11:23:41;31.80;86.10
54082;DHT22;39986;50.770;0.266;2022-07-05T11:26:07;30.60;84.20
54082;DHT22;39986;50.770;0.266;2022-07-05T11:28:41;29.70;88.60
54082;DHT22;39986;50.770;0.266;2022-07-05T11:31:08;30.30;86.40
54082;DHT22;39986;50.770;0.266;2022-07-05T11:33:34;31.50;82.90
54082;DHT22;39986;50.770;0.266;2022-07-05T11:36:00;33.70;79.30
54082;DHT22;39986;50.770;0.266;2022-07-05T11:38:26;35.10;75.00
54082;DHT22;39986;50.770;0.266;2022-07-05T11:40:52;34.50;73.70
54082;DHT22;39986;50.770;0.266;2022-07-05T11:43:29;33.80;74.00
54082;DHT22;39986;50.770;0.266;2022-07-05T11:45:58;33.30;73.60
54082;DHT22;39986;50.770;0.266;2022-07-05T11:48:25;32.80;75.60
54082;DHT22;39986;50.770;0.266;2022-07-05T11:50:50;33.50;74.60
54082;DHT22;39986;50.770;0.266;2022-07-05T11:53:26;33.00;73.90
54082;DHT22;39986;50.770;0.266;2022-07-05T11:56:00;32.00;75.10
54082;DHT22;39986;50.770;0.266;2022-07-05T11:58:32;31.20;77.60
54082;DHT22;39986;50.770;0.266;2022-07-05T12:00:58;31.30;78.60
54082;DHT22;39986;50.770;0.266;2022-07-05T12:03:24;31.80;77.20
54082;DHT22;39986;50.770;0.266;2022-07-05T12:05:49;32.50;73.80
54082;DHT22;39986;50.770;0.266;2022-07-05T12:08:24;32.30;74.70
54082;DHT22;39986;50.770;0.266;2022-07-05T12:10:49;32.90;72.60
54082;DHT22;39986;50.770;0.266;2022-07-05T12:13:46;33.70;72.00
54082;DHT22;39986;50.770;0.266;2022-07-05T12:16:37;33.90;70.70
54082;DHT22;39986;50.770;0.266;2022-07-05T12:19:02;34.00;70.40
54082;DHT22;39986;50.770;0.266;2022-07-05T12:21:30;34.70;68.80
54082;DHT22;39986;50.770;0.266;2022-07-05T12:23:55;34.90;67.60
54082;DHT22;39986;50.770;0.266;2022-07-05T12:26:21;35.20;67.70
54082;DHT22;39986;50.770;0.266;2022-07-05T12:28:47;35.00;66.40
54082;DHT22;39986;50.770;0.266;2022-07-05T12:31:14;34.80;68.30
54082;DHT22;39986;50.770;0.266;2022-07-05T12:33:39;35.10;67.10
54082;DHT22;39986;50.770;0.266;2022-07-05T12:36:05;35.10;67.70
54082;DHT22;39986;50.770;0.266;2022-07-05T12:38:35;35.00;68.40
54082;DHT22;39986;50.770;0.266;2022-07-05T12:41:01;34.90;67.20
54082;DHT22;39986;50.770;0.266;2022-07-05T12:43:26;34.90;65.70
54082;DHT22;39986;50.770;0.266;2022-07-05T12:45:59;34.80;66.50
54082;DHT22;39986;50.770;0.266;2022-07-05T12:48:32;34.20;67.30
54082;DHT22;39986;50.770;0.266;2022-07-05T12:50:58;34.70;66.90
54082;DHT22;39986;50.770;0.266;2022-07-05T12:53:24;34.20;66.90
54082;DHT22;39986;50.770;0.266;2022-07-05T12:56:09;34.30;67.80
54082;DHT22;39986;50.770;0.266;2022-07-05T12:59:00;32.80;70.30
54082;DHT22;39986;50.770;0.266;2022-07-05T13:01:42;31.60;72.80
54082;DHT22;39986;50.770;0.266;2022-07-05T13:04:08;32.30;70.80
54082;DHT22;39986;50.770;0.266;2022-07-05T13:09:09;33.20;70.40
54082;DHT22;39986;50.770;0.266;2022-07-05T13:11:35;32.30;71.40
54082;DHT22;39986;50.770;0.266;2022-07-05T13:14:01;32.00;72.60
54082;DHT22;39986;50.770;0.266;2022-07-05T13:16:26;32.10;73.20
54082;DHT22;39986;50.770;0.266;2022-07-05T13:18:52;31.70;71.00
54082;DHT22;39986;50.770;0.266;2022-07-05T13:21:17;31.20;72.70
54082;DHT22;39986;50.770;0.266;2022-07-05T13:23:43;31.90;70.40
54082;DHT22;39986;50.770;0.266;2022-07-05T13:26:09;33.10;67.40
54082;DHT22;39986;50.770;0.266;2022-07-05T13:28:34;34.50;65.20
54082;DHT22;39986;50.770;0.266;2022-07-05T13:31:00;35.60;63.00
54082;DHT22;39986;50.770;0.266;2022-07-05T13:33:25;35.50;63.60
54082;DHT22;39986;50.770;0.266;2022-07-05T13:35:51;34.80;64.40
54082;DHT22;39986;50.770;0.266;2022-07-05T13:38:17;34.50;64.80
54082;DHT22;39986;50.770;0.266;2022-07-05T13:40:42;34.40;63.90
54082;DHT22;39986;50.770;0.266;2022-07-05T13:43:08;34.00;64.10
54082;DHT22;39986;50.770;0.266;2022-07-05T13:45:33;34.60;62.90
54082;DHT22;39986;50.770;0.266;2022-07-05T13:47:59;35.20;62.70
54082;DHT22;39986;50.770;0.266;2022-07-05T13:50:24;36.20;62.00
54082;DHT22;39986;50.770;0.266;2022-07-05T13:53:01;36.70;60.30
54082;DHT22;39986;50.770;0.266;2022-07-05T13:55:27;35.80;61.60
54082;DHT22;39986;50.770;0.266;2022-07-05T13:57:52;35.20;63.00
54082;DHT22;39986;50.770;0.266;2022-07-05T14:00:18;35.70;61.30
54082;DHT22;39986;50.770;0.266;2022-07-05T14:02:44;35.90;61.60
54082;DHT22;39986;50.770;0.266;2022-07-05T14:05:10;35.40;63.70
54082;DHT22;39986;50.770;0.266;2022-07-05T14:07:36;35.40;63.70
54082;DHT22;39986;50.770;0.266;2022-07-05T14:10:04;35.40;63.30
54082;DHT22;39986;50.770;0.266;2022-07-05T14:12:30;35.70;63.40
54082;DHT22;39986;50.770;0.266;2022-07-05T14:14:56;36.30;64.60
54082;DHT22;39986;50.770;0.266;2022-07-05T14:17:22;35.50;65.60
54082;DHT22;39986;50.770;0.266;2022-07-05T14:19:48;35.00;67.00
54082;DHT22;39986;50.770;0.266;2022-07-05T14:22:17;34.90;67.60
54082;DHT22;39986;50.770;0.266;2022-07-05T14:24:43;34.00;68.60
54082;DHT22;39986;50.770;0.266;2022-07-05T14:27:08;34.20;68.10
54082;DHT22;39986;50.770;0.266;2022-07-05T14:29:34;33.90;67.60
54082;DHT22;39986;50.770;0.266;2022-07-05T14:31:59;34.80;66.90
54082;DHT22;39986;50.770;0.266;2022-07-05T14:34:25;35.50;65.10
54082;DHT22;39986;50.770;0.266;2022-07-05T14:36:52;35.30;65.50
54082;DHT22;39986;50.770;0.266;2022-07-05T14:39:18;35.60;64.50
54082;DHT22;39986;50.770;0.266;2022-07-05T14:41:45;36.10;63.60
54082;DHT22;39986;50.770;0.266;2022-07-05T14:44:11;34.80;65.80
54082;DHT22;39986;50.770;0.266;2022-07-05T14:46:36;34.30;66.80
54082;DHT22;39986;50.770;0.266;2022-07-05T14:49:02;34.40;66.00
54082;DHT22;39986;50.770;0.266;2022-07-05T14:51:27;33.90;67.60
54082;DHT22;39986;50.770;0.266;2022-07-05T14:53:53;32.70;70.90
54082;DHT22;39986;50.770;0.266;2022-07-05T14:56:19;30.90;75.80
54082;DHT22;39986;50.770;0.266;2022-07-05T14:58:44;29.00;81.20
54082;DHT22;39986;50.770;0.266;2022-07-05T15:01:10;27.90;85.40
54082;DHT22;39986;50.770;0.266;2022-07-05T15:03:36;27.00;88.70
54082;DHT22;39986;50.770;0.266;2022-07-05T15:06:02;26.50;90.90
54082;DHT22;39986;50.770;0.266;2022-07-05T15:08:30;26.10;91.90
54082;DHT22;39986;50.770;0.266;2022-07-05T15:10:56;26.20;92.70
54082;DHT22;39986;50.770;0.266;2022-07-05T15:13:21;26.10;93.20
54082;DHT22;39986;50.770;0.266;2022-07-05T15:16:12;26.00;93.80
54082;DHT22;39986;50.770;0.266;2022-07-05T15:18:38;25.60;94.70
54082;DHT22;39986;50.770;0.266;2022-07-05T15:21:03;25.50;94.30
54082;DHT22;39986;50.770;0.266;2022-07-05T15:23:29;25.70;95.00
54082;DHT22;39986;50.770;0.266;2022-07-05T15:25:55;25.70;95.70
54082;DHT22;39986;50.770;0.266;2022-07-05T15:28:21;25.60;96.00
54082;DHT22;39986;50.770;0.266;2022-07-05T15:30:46;25.50;96.20
54082;DHT22;39986;50.770;0.266;2022-07-05T15:33:12;25.20;97.00
54082;DHT22;39986;50.770;0.266;2022-07-05T15:35:38;25.10;97.50
54082;DHT22;39986;50.770;0.266;2022-07-05T15:38:03;25.10;97.40
54082;DHT22;39986;50.770;0.266;2022-07-05T15:40:29;24.80;98.80
54082;DHT22;39986;50.770;0.266;2022-07-05T15:42:54;24.80;98.80
54082;DHT22;39986;50.770;0.266;2022-07-05T15:45:20;24.70;99.30
54082;DHT22;39986;50.770;0.266;2022-07-05T15:47:45;24.80;99.40